松山國際航空站 - ATIS

METAR RCSS 021800Z VRB02KT 9999 FEW020 13/11 Q1022 NOSIG RMK A3019=

站台狀態:Online
最後更新:2021-12-03 03:00:01